Time,TemperatureF,DewpointF,PressureIn,WindDirection,WindDirectionDegrees,WindSpeedMPH,WindSpeedGustMPH,Humidity,HourlyPrecipIn,Conditions,Clouds,dailyrainin,SolarRadiationWatts/m^2,SoftwareType,DateUTC
2013-07-28 00:00:00,81.1,61.3,28.70,NW,310,5.8,5.8,51,0.00,CLR,FEW,0.00,0.0,WeatherDisplay:10.37,2013-07-27 22:00:00,
2013-07-28 00:05:00,81.3,62.0,28.70,ENE,60,3.5,3.8,52,0.00,RA,FEW,0.00,0.0,WeatherDisplay:10.37,2013-07-27 22:05:00,
2013-07-28 00:11:00,82.0,61.6,28.70,SE,135,4.6,5.1,50,0.00,CLR,FEW,0.00,0.0,WeatherDisplay:10.37,2013-07-27 22:11:00,
2013-07-28 00:16:00,82.4,61.3,28.70,West,280,3.5,3.5,49,0.00,CLR,FEW,0.00,0.0,WeatherDisplay:10.37,2013-07-27 22:16:00,
2013-07-28 00:21:00,83.3,61.6,28.70,SSE,165,4.6,4.7,48,0.00,CLR,FEW,0.00,0.0,WeatherDisplay:10.37,2013-07-27 22:21:00,
2013-07-28 00:26:00,83.3,61.6,28.70,SSE,165,4.6,4.7,48,0.00,CLR,FEW,0.00,0.0,WeatherDisplay:10.37,2013-07-27 22:26:00,
2013-07-28 00:31:00,83.7,60.7,28.70,North,350,8.1,8.1,46,0.00,CLR,FEW,0.00,0.0,WeatherDisplay:10.37,2013-07-27 22:31:00,
2013-07-28 00:36:00,83.7,60.7,28.70,West,275,6.9,6.9,46,0.00,CLR,FEW,0.00,0.0,WeatherDisplay:10.37,2013-07-27 22:36:00,
2013-07-28 00:41:00,83.8,60.8,28.70,SSE,160,9.2,9.2,46,0.00,CLR,FEW,0.00,0.0,WeatherDisplay:10.37,2013-07-27 22:41:00,
2013-07-28 00:46:00,83.1,60.2,28.70,SSW,195,4.6,4.9,46,0.00,CLR,FEW,0.00,0.0,WeatherDisplay:10.37,2013-07-27 22:46:00,
2013-07-28 00:52:00,82.9,60.0,28.70,ESE,110,8.1,8.1,46,0.00,CLR,FEW,0.00,0.0,WeatherDisplay:10.37,2013-07-27 22:52:00,
2013-07-28 00:57:00,83.1,60.8,28.70,West,265,5.8,6.2,47,0.00,CLR,FEW,0.00,0.0,WeatherDisplay:10.37,2013-07-27 22:57:00,
2013-07-28 01:02:00,82.4,60.7,28.70,WSW,245,4.6,4.7,48,0.00,CLR,FEW,0.00,0.0,WeatherDisplay:10.37,2013-07-27 23:02:00,
2013-07-28 01:07:00,82.4,60.7,28.70,WSW,245,4.6,4.7,48,0.00,CLR,FEW,0.00,0.0,WeatherDisplay:10.37,2013-07-27 23:07:00,
2013-07-28 01:12:00,82.4,60.7,28.70,WSW,245,4.6,4.7,48,0.00,CLR,FEW,0.00,0.0,WeatherDisplay:10.37,2013-07-27 23:12:00,
2013-07-28 01:17:00,81.7,61.2,28.70,NE,55,2.3,2.4,50,0.00,CLR,FEW,0.00,0.0,WeatherDisplay:10.37,2013-07-27 23:17:00,
2013-07-28 01:22:00,80.1,61.4,28.70,ENE,65,1.1,1.3,53,0.00,CLR,FEW,0.00,0.0,WeatherDisplay:10.37,2013-07-27 23:22:00,
2013-07-28 01:27:00,79.9,61.2,28.70,NNE,20,4.6,4.6,53,0.00,CLR,FEW,0.00,0.0,WeatherDisplay:10.37,2013-07-27 23:27:00,
2013-07-28 01:32:00,79.9,61.2,28.70,NNE,20,4.6,4.6,53,0.00,CLR,FEW,0.00,0.0,WeatherDisplay:10.37,2013-07-27 23:32:00,
2013-07-28 01:37:00,78.6,61.6,28.70,WNW,295,3.5,3.5,56,0.00,CLR,FEW,0.00,0.0,WeatherDisplay:10.37,2013-07-27 23:37:00,
2013-07-28 01:42:00,77.7,61.8,28.70,NW,320,0.0,0.4,58,0.00,CLR,FEW,0.00,0.0,WeatherDisplay:10.37,2013-07-27 23:42:00,
2013-07-28 01:47:00,77.0,61.6,28.70,North,0,1.1,1.3,59,0.00,CLR,FEW,0.00,0.0,WeatherDisplay:10.37,2013-07-27 23:47:00,
2013-07-28 01:52:00,76.1,61.7,28.70,North,0,0.0,0.0,61,0.00,CLR,FEW,0.00,0.0,WeatherDisplay:10.37,2013-07-27 23:52:00,
2013-07-28 01:57:00,75.2,61.3,28.70,North,355,0.0,0.0,62,0.00,CLR,FEW,0.00,0.0,WeatherDisplay:10.37,2013-07-27 23:57:00,
2013-07-28 02:02:00,74.8,61.4,28.73,NW,310,1.1,1.1,63,0.00,CLR,FEW,0.00,0.0,WeatherDisplay:10.37,2013-07-28 00:02:00,
2013-07-28 02:07:00,77.0,61.6,28.73,SW,230,2.3,2.3,59,0.00,CLR,FEW,0.00,0.0,WeatherDisplay:10.37,2013-07-28 00:07:00,
2013-07-28 02:12:00,77.0,61.6,28.73,SW,230,2.3,2.3,59,0.00,CLR,FEW,0.00,0.0,WeatherDisplay:10.37,2013-07-28 00:12:00,
2013-07-28 02:17:00,78.8,61.8,28.70,South,175,4.6,4.6,56,0.00,CLR,FEW,0.00,0.0,WeatherDisplay:10.37,2013-07-28 00:17:00,
2013-07-28 02:22:00,78.8,61.8,28.70,South,175,4.6,4.6,56,0.00,CLR,FEW,0.00,0.0,WeatherDisplay:10.37,2013-07-28 00:22:00,
2013-07-28 02:27:00,79.7,61.6,28.70,West,265,1.1,1.1,54,0.00,CLR,FEW,0.00,0.0,WeatherDisplay:10.37,2013-07-28 00:27:00,
2013-07-28 02:32:00,80.1,61.9,28.70,NW,310,4.6,4.6,54,0.00,CLR,FEW,0.00,0.0,WeatherDisplay:10.37,2013-07-28 00:32:00,
2013-07-28 02:37:00,80.1,61.9,28.70,NW,310,4.6,4.6,54,0.00,CLR,FEW,0.00,0.0,WeatherDisplay:10.37,2013-07-28 00:37:00,
2013-07-28 02:42:00,79.9,61.7,28.70,NNW,340,0.0,0.0,54,0.00,CLR,FEW,0.00,0.0,WeatherDisplay:10.37,2013-07-28 00:42:00,
2013-07-28 02:47:00,79.2,61.6,28.70,NW,310,1.1,1.1,55,0.00,CLR,FEW,0.00,0.0,WeatherDisplay:10.37,2013-07-28 00:47:00,
2013-07-28 02:52:00,79.2,61.6,28.70,NW,310,1.1,1.1,55,0.00,CLR,FEW,0.00,0.0,WeatherDisplay:10.37,2013-07-28 00:52:00,
2013-07-28 02:57:00,78.1,61.6,28.70,WNW,295,5.8,6.0,57,0.00,CLR,FEW,0.00,0.0,WeatherDisplay:10.37,2013-07-28 00:57:00,
2013-07-28 03:02:00,77.2,61.7,28.70,NNW,340,2.3,2.3,59,0.00,CLR,FEW,0.00,0.0,WeatherDisplay:10.37,2013-07-28 01:02:00,
2013-07-28 03:07:00,77.0,61.6,28.70,North,0,1.1,1.1,59,0.00,CLR,FEW,0.00,0.0,WeatherDisplay:10.37,2013-07-28 01:07:00,
2013-07-28 03:12:00,77.0,61.6,28.70,North,0,1.1,1.1,59,0.00,CLR,FEW,0.00,0.0,WeatherDisplay:10.37,2013-07-28 01:12:00,
2013-07-28 03:17:00,75.9,62.0,28.70,NNE,30,0.0,0.0,62,0.00,CLR,FEW,0.00,0.0,WeatherDisplay:10.37,2013-07-28 01:17:00,
2013-07-28 03:22:00,74.8,61.4,28.70,WNW,300,0.0,0.0,63,0.00,CLR,FEW,0.00,0.0,WeatherDisplay:10.37,2013-07-28 01:22:00,
2013-07-28 03:27:00,74.3,61.3,28.70,NNE,15,0.0,0.0,64,0.00,CLR,FEW,0.00,0.0,WeatherDisplay:10.37,2013-07-28 01:27:00,
2013-07-28 03:32:00,72.9,61.3,28.70,NE,40,1.1,1.5,67,0.00,CLR,FEW,0.00,0.0,WeatherDisplay:10.37,2013-07-28 01:32:00,
2013-07-28 03:37:00,72.9,61.3,28.70,NE,40,1.1,1.5,67,0.00,CLR,FEW,0.00,0.0,WeatherDisplay:10.37,2013-07-28 01:37:00,
2013-07-28 03:42:00,72.3,61.2,28.70,NNW,330,0.0,0.0,68,0.00,CLR,FEW,0.00,0.0,WeatherDisplay:10.37,2013-07-28 01:42:00,
2013-07-28 03:47:00,71.8,61.1,28.70,West,280,0.0,0.0,69,0.00,CLR,FEW,0.00,0.0,WeatherDisplay:10.37,2013-07-28 01:47:00,
2013-07-28 03:52:00,71.4,61.1,28.70,WSW,240,0.0,0.0,70,0.00,CLR,FEW,0.00,0.0,WeatherDisplay:10.37,2013-07-28 01:52:00,
2013-07-28 03:57:00,71.2,61.4,28.70,WSW,240,0.0,0.0,71,0.00,CLR,FEW,0.00,0.0,WeatherDisplay:10.37,2013-07-28 01:57:00,
2013-07-28 04:02:00,71.2,61.0,28.70,SW,235,0.0,0.0,70,0.00,CLR,FEW,0.00,0.0,WeatherDisplay:10.37,2013-07-28 02:02:00,
2013-07-28 04:07:00,70.5,61.1,28.70,SW,215,0.0,0.0,72,0.00,CLR,FEW,0.00,0.0,WeatherDisplay:10.37,2013-07-28 02:07:00,
2013-07-28 04:12:00,70.5,61.1,28.70,SW,215,0.0,0.0,72,0.00,CLR,FEW,0.00,0.0,WeatherDisplay:10.37,2013-07-28 02:12:00,
2013-07-28 04:17:00,70.2,61.1,28.70,SW,230,2.3,2.3,73,0.00,CLR,FEW,0.00,0.0,WeatherDisplay:10.37,2013-07-28 02:17:00,
2013-07-28 04:22:00,69.6,60.6,28.70,SSE,160,2.3,2.3,73,0.00,CLR,FEW,0.00,0.0,WeatherDisplay:10.37,2013-07-28 02:22:00,
2013-07-28 04:27:00,69.3,61.0,28.70,SW,220,2.3,2.3,75,0.00,CLR,FEW,0.00,0.0,WeatherDisplay:10.37,2013-07-28 02:27:00,
2013-07-28 04:32:00,69.3,61.0,28.70,SW,220,0.0,0.6,75,0.00,CLR,FEW,0.00,0.0,WeatherDisplay:10.37,2013-07-28 02:32:00,
2013-07-28 04:37:00,69.3,61.0,28.70,SW,220,0.0,0.6,75,0.00,CLR,FEW,0.00,0.0,WeatherDisplay:10.37,2013-07-28 02:37:00,
2013-07-28 04:42:00,68.5,60.7,28.70,NNE,20,0.0,0.0,76,0.00,CLR,FEW,0.00,0.0,WeatherDisplay:10.37,2013-07-28 02:42:00,
2013-07-28 04:47:00,67.6,60.2,28.70,SE,130,0.0,0.0,77,0.00,CLR,FEW,0.00,0.0,WeatherDisplay:10.37,2013-07-28 02:47:00,
2013-07-28 04:52:00,67.5,60.4,28.70,SSW,195,0.0,0.0,78,0.00,CLR,FEW,0.00,0.0,WeatherDisplay:10.37,2013-07-28 02:52:00,
2013-07-28 04:57:00,67.6,60.9,28.70,SW,235,1.1,1.1,79,0.00,CLR,FEW,0.00,0.0,WeatherDisplay:10.37,2013-07-28 02:57:00,
2013-07-28 05:02:00,67.3,60.5,28.70,SW,215,0.0,0.0,79,0.00,OVC,FEW,0.00,0.0,WeatherDisplay:10.37,2013-07-28 03:02:00,
2013-07-28 05:07:00,67.3,60.5,28.70,SSW,200,0.0,0.0,79,0.00,OVC,FEW,0.00,0.0,WeatherDisplay:10.37,2013-07-28 03:07:00,
2013-07-28 05:12:00,67.3,60.5,28.70,SSW,200,0.0,0.0,79,0.00,OVC,FEW,0.00,0.0,WeatherDisplay:10.37,2013-07-28 03:12:00,
2013-07-28 05:17:00,67.3,60.5,28.70,South,185,0.0,0.0,79,0.00,OVC,FEW,0.00,0.0,WeatherDisplay:10.37,2013-07-28 03:17:00,
2013-07-28 05:22:00,66.9,60.2,28.70,SSW,205,0.0,0.0,79,0.00,OVC,FEW,0.00,0.0,WeatherDisplay:10.37,2013-07-28 03:22:00,
2013-07-28 05:27:00,66.9,60.5,28.70,South,185,0.0,0.0,80,0.00,OVC,FEW,0.00,0.0,WeatherDisplay:10.37,2013-07-28 03:27:00,
2013-07-28 05:32:00,66.6,60.2,28.70,South,175,0.0,0.0,80,0.00,OVC,FEW,0.00,0.0,WeatherDisplay:10.37,2013-07-28 03:32:00,
2013-07-28 05:37:00,66.6,60.2,28.70,South,175,0.0,0.0,80,0.00,OVC,FEW,0.00,0.0,WeatherDisplay:10.37,2013-07-28 03:37:00,
2013-07-28 05:42:00,66.6,60.2,28.70,SSW,210,0.0,0.0,80,0.00,OVC,FEW,0.00,0.0,WeatherDisplay:10.37,2013-07-28 03:42:00,
2013-07-28 05:47:00,66.0,60.0,28.73,SSW,210,0.0,0.0,81,0.00,OVC,FEW,0.00,0.0,WeatherDisplay:10.37,2013-07-28 03:47:00,
2013-07-28 05:52:00,65.5,59.8,28.73,SSW,200,0.0,0.0,82,0.00,OVC,FEW,0.00,0.0,WeatherDisplay:10.37,2013-07-28 03:52:00,
2013-07-28 05:57:00,65.7,60.4,28.73,SSW,210,0.0,0.0,83,0.00,OVC,FEW,0.00,0.0,WeatherDisplay:10.37,2013-07-28 03:57:00,
2013-07-28 06:01:00,65.7,60.4,28.73,SSW,210,0.0,0.0,83,0.00,OVC,FEW,0.00,0.0,WeatherDisplay:10.37,2013-07-28 04:01:00,
2013-07-28 06:02:00,65.7,60.4,28.73,SSW,210,0.0,0.0,83,0.00,OVC,FEW,0.00,0.0,WeatherDisplay:10.37,2013-07-28 04:02:00,
2013-07-28 06:03:00,65.7,60.4,28.73,SSW,210,0.0,0.0,83,0.00,OVC,FEW,0.00,0.0,WeatherDisplay:10.37,2013-07-28 04:03:00,
2013-07-28 06:08:00,66.4,60.7,28.70,South,185,0.0,0.0,82,0.00,OVC,FEW,0.00,0.0,WeatherDisplay:10.37,2013-07-28 04:08:00,
2013-07-28 06:13:00,66.4,60.7,28.70,South,185,0.0,0.0,82,0.00,OVC,FEW,0.00,0.0,WeatherDisplay:10.37,2013-07-28 04:13:00,
2013-07-28 06:18:00,66.9,60.9,28.73,South,185,0.0,0.0,81,0.00,OVC,FEW,0.00,0.0,WeatherDisplay:10.37,2013-07-28 04:18:00,
2013-07-28 06:23:00,67.6,60.9,28.73,South,185,0.0,0.0,79,0.00,OVC,FEW,0.00,0.0,WeatherDisplay:10.37,2013-07-28 04:23:00,
2013-07-28 06:28:00,68.5,61.4,28.73,South,185,0.0,0.0,78,0.00,OVC,FEW,0.00,0.0,WeatherDisplay:10.37,2013-07-28 04:28:00,
2013-07-28 06:33:00,69.1,61.9,28.73,South,185,0.0,0.0,78,0.00,OVC,FEW,0.00,0.0,WeatherDisplay:10.37,2013-07-28 04:33:00,
2013-07-28 06:38:00,69.1,61.9,28.73,South,185,0.0,0.0,78,0.00,OVC,FEW,0.00,0.0,WeatherDisplay:10.37,2013-07-28 04:38:00,
2013-07-28 06:43:00,68.9,61.8,28.73,South,185,0.0,0.0,78,0.00,OVC,FEW,0.00,0.0,WeatherDisplay:10.37,2013-07-28 04:43:00,
2013-07-28 06:48:00,70.0,62.4,28.73,South,190,1.1,1.1,77,0.00,OVC,FEW,0.00,0.0,WeatherDisplay:10.37,2013-07-28 04:48:00,
2013-07-28 06:53:00,70.3,62.4,28.73,SSE,155,0.0,0.0,76,0.00,OVC,FEW,0.00,0.0,WeatherDisplay:10.37,2013-07-28 04:53:00,
2013-07-28 06:58:00,70.9,62.9,28.73,SSE,160,0.0,0.0,76,0.00,OVC,FEW,0.00,0.0,WeatherDisplay:10.37,2013-07-28 04:58:00,
2013-07-28 07:03:00,72.0,63.2,28.73,NE,35,2.3,2.3,74,0.00,OVC,FEW,0.00,0.0,WeatherDisplay:10.37,2013-07-28 05:03:00,
2013-07-28 07:08:00,70.9,62.6,28.73,NNW,330,3.5,3.5,75,0.00,OVC,FEW,0.00,0.0,WeatherDisplay:10.37,2013-07-28 05:08:00,
2013-07-28 07:13:00,70.9,62.6,28.73,NNW,330,3.5,3.5,75,0.00,OVC,FEW,0.00,0.0,WeatherDisplay:10.37,2013-07-28 05:13:00,
2013-07-28 07:18:00,71.8,63.4,28.76,ESE,115,3.5,3.5,75,0.00,OVC,FEW,0.00,0.0,WeatherDisplay:10.37,2013-07-28 05:18:00,
2013-07-28 07:23:00,72.7,63.9,28.76,South,180,1.1,1.1,74,0.00,OVC,FEW,0.00,0.0,WeatherDisplay:10.37,2013-07-28 05:23:00,
2013-07-28 07:28:00,73.4,64.2,28.76,North,0,0.0,0.6,73,0.00,OVC,FEW,0.00,0.0,WeatherDisplay:10.37,2013-07-28 05:28:00,
2013-07-28 07:33:00,73.9,63.9,28.76,NE,40,3.5,3.5,71,0.00,OVC,FEW,0.00,0.0,WeatherDisplay:10.37,2013-07-28 05:33:00,
2013-07-28 07:38:00,73.9,63.9,28.76,NE,40,3.5,3.5,71,0.00,OVC,FEW,0.00,0.0,WeatherDisplay:10.37,2013-07-28 05:38:00,
2013-07-28 07:43:00,74.5,64.5,28.76,NW,305,2.3,2.6,71,0.00,OVC,FEW,0.00,0.0,WeatherDisplay:10.37,2013-07-28 05:43:00,
2013-07-28 07:48:00,75.2,64.7,28.76,NNE,30,2.3,2.3,70,0.00,OVC,FEW,0.00,0.0,WeatherDisplay:10.37,2013-07-28 05:48:00,
2013-07-28 07:53:00,76.3,64.9,28.76,ESE,115,0.0,0.0,68,0.00,OVC,FEW,0.00,0.0,WeatherDisplay:10.37,2013-07-28 05:53:00,
2013-07-28 07:58:00,78.6,65.4,28.76,ESE,115,0.0,0.0,64,0.00,OVC,FEW,0.00,0.0,WeatherDisplay:10.37,2013-07-28 05:58:00,
2013-07-28 08:03:00,79.2,65.9,28.76,SE,125,0.0,0.2,64,0.00,OVC,FEW,0.00,0.0,WeatherDisplay:10.37,2013-07-28 06:03:00,
2013-07-28 08:08:00,80.8,65.6,28.76,WNW,300,0.0,0.0,60,0.00,OVC,FEW,0.00,0.0,WeatherDisplay:10.37,2013-07-28 06:08:00,
2013-07-28 08:13:00,80.8,65.6,28.76,WNW,300,0.0,0.0,60,0.00,OVC,FEW,0.00,0.0,WeatherDisplay:10.37,2013-07-28 06:13:00,
2013-07-28 08:18:00,80.6,66.4,28.76,North,0,0.0,0.0,62,0.00,OVC,FEW,0.00,0.0,WeatherDisplay:10.37,2013-07-28 06:18:00,
2013-07-28 08:23:00,82.0,65.8,28.76,West,265,0.0,0.0,58,0.00,OVC,FEW,0.00,0.0,WeatherDisplay:10.37,2013-07-28 06:23:00,
2013-07-28 08:28:00,82.9,66.1,28.76,SSW,200,0.0,0.0,57,0.00,OVC,FEW,0.00,0.0,WeatherDisplay:10.37,2013-07-28 06:28:00,
2013-07-28 08:33:00,81.9,65.6,28.76,NNW,340,2.3,2.3,58,0.00,OVC,FEW,0.00,0.0,WeatherDisplay:10.37,2013-07-28 06:33:00,
2013-07-28 08:38:00,81.5,65.8,28.76,North,355,2.3,2.8,59,0.00,OVC,FEW,0.00,0.0,WeatherDisplay:10.37,2013-07-28 06:38:00,
2013-07-28 08:43:00,81.5,65.8,28.76,North,355,2.3,2.8,59,0.00,OVC,FEW,0.00,0.0,WeatherDisplay:10.37,2013-07-28 06:43:00,
2013-07-28 08:48:00,80.6,65.4,28.79,NNE,20,3.5,3.5,60,0.00,OVC,FEW,0.00,0.0,WeatherDisplay:10.37,2013-07-28 06:48:00,
2013-07-28 08:53:00,81.1,65.0,28.79,NNW,335,2.3,2.8,58,0.00,OVC,FEW,0.00,0.0,WeatherDisplay:10.37,2013-07-28 06:53:00,
2013-07-28 08:58:00,81.3,65.1,28.79,NNE,20,4.6,4.6,58,0.00,OVC,FEW,0.00,0.0,WeatherDisplay:10.37,2013-07-28 06:58:00,
2013-07-28 09:03:00,81.7,64.5,28.79,NW,325,4.6,4.6,56,0.00,OVC,FEW,0.00,0.0,WeatherDisplay:10.37,2013-07-28 07:03:00,
2013-07-28 09:08:00,82.0,63.8,28.79,North,10,3.5,3.5,54,0.00,OVC,FEW,0.00,0.0,WeatherDisplay:10.37,2013-07-28 07:08:00,
2013-07-28 09:13:00,82.4,64.6,28.79,North,10,3.5,3.5,55,0.00,OVC,FEW,0.00,0.0,WeatherDisplay:10.37,2013-07-28 07:13:00,
2013-07-28 09:18:00,82.4,64.6,28.79,North,10,3.5,3.5,55,0.00,OVC,FEW,0.00,0.0,WeatherDisplay:10.37,2013-07-28 07:18:00,
2013-07-28 09:23:00,82.4,64.6,28.79,North,10,3.5,3.5,55,0.00,OVC,FEW,0.00,0.0,WeatherDisplay:10.37,2013-07-28 07:23:00,
2013-07-28 09:28:00,83.8,63.8,28.79,WNW,295,3.5,3.8,51,0.00,OVC,FEW,0.00,0.0,WeatherDisplay:10.37,2013-07-28 07:28:00,
2013-07-28 09:33:00,84.6,64.4,28.76,NNW,330,3.5,3.5,51,0.00,OVC,FEW,0.00,0.0,WeatherDisplay:10.37,2013-07-28 07:33:00,
2013-07-28 09:38:00,84.9,64.2,28.76,NE,35,2.3,2.4,50,0.00,OVC,FEW,0.00,0.0,WeatherDisplay:10.37,2013-07-28 07:38:00,
2013-07-28 09:43:00,84.9,64.2,28.76,NE,35,2.3,2.4,50,0.00,OVC,FEW,0.00,0.0,WeatherDisplay:10.37,2013-07-28 07:43:00,
2013-07-28 09:48:00,85.8,65.0,28.76,South,170,0.0,0.0,50,0.00,OVC,FEW,0.00,0.0,WeatherDisplay:10.37,2013-07-28 07:48:00,
2013-07-28 09:53:00,85.8,64.5,28.76,SE,135,2.3,2.3,49,0.00,OVC,FEW,0.00,0.0,WeatherDisplay:10.37,2013-07-28 07:53:00,
2013-07-28 09:58:00,85.6,64.9,28.76,NNE,20,5.8,6.0,50,0.00,OVC,FEW,0.00,0.0,WeatherDisplay:10.37,2013-07-28 07:58:00,
2013-07-28 10:03:00,86.2,65.4,28.79,NNW,330,3.5,3.5,50,0.00,OVC,FEW,0.00,0.0,WeatherDisplay:10.37,2013-07-28 08:03:00,
2013-07-28 10:08:00,87.1,65.6,28.79,North,5,0.0,0.6,49,0.00,OVC,FEW,0.00,0.0,WeatherDisplay:10.37,2013-07-28 08:08:00,
2013-07-28 10:13:00,87.1,64.4,28.79,NE,50,4.6,5.1,47,0.00,OVC,FEW,0.00,0.0,WeatherDisplay:10.37,2013-07-28 08:13:00,
2013-07-28 10:18:00,87.1,64.4,28.79,NE,50,4.6,5.1,47,0.00,OVC,FEW,0.00,0.0,WeatherDisplay:10.37,2013-07-28 08:18:00,
2013-07-28 10:23:00,86.9,65.4,28.79,NE,40,4.6,4.9,49,0.00,OVC,FEW,0.00,0.0,WeatherDisplay:10.37,2013-07-28 08:23:00,
2013-07-28 10:28:00,87.4,64.7,28.79,South,190,4.6,4.7,47,0.00,OVC,FEW,0.00,0.0,WeatherDisplay:10.37,2013-07-28 08:28:00,
2013-07-28 10:33:00,88.0,65.8,28.76,NNW,345,3.5,4.0,48,0.00,OVC,FEW,0.00,0.0,WeatherDisplay:10.37,2013-07-28 08:33:00,
2013-07-28 10:38:00,87.6,63.7,28.76,NNW,345,8.1,8.1,45,0.00,OVC,FEW,0.00,0.0,WeatherDisplay:10.37,2013-07-28 08:38:00,
2013-07-28 10:43:00,87.6,63.7,28.76,NNW,345,8.1,8.1,45,0.00,OVC,FEW,0.00,0.0,WeatherDisplay:10.37,2013-07-28 08:43:00,
2013-07-28 10:48:00,87.1,63.8,28.76,SSE,150,6.9,6.9,46,0.00,OVC,FEW,0.00,0.0,WeatherDisplay:10.37,2013-07-28 08:48:00,
2013-07-28 10:53:00,87.8,62.5,28.76,East,85,5.8,5.8,43,0.00,OVC,FEW,0.00,0.0,WeatherDisplay:10.37,2013-07-28 08:53:00,
2013-07-28 10:58:00,87.6,61.7,28.76,North,350,9.2,9.2,42,0.00,OVC,FEW,0.00,0.0,WeatherDisplay:10.37,2013-07-28 08:58:00,
2013-07-28 11:03:00,88.2,62.2,28.79,SSW,200,8.1,8.1,42,0.00,OVC,FEW,0.00,0.0,WeatherDisplay:10.37,2013-07-28 09:03:00,
2013-07-28 11:08:00,88.9,62.1,28.79,East,80,4.6,4.6,41,0.00,OVC,FEW,0.00,0.0,WeatherDisplay:10.37,2013-07-28 09:08:00,
2013-07-28 11:13:00,89.6,63.5,28.79,South,175,2.3,2.3,42,0.00,OVC,FEW,0.00,0.0,WeatherDisplay:10.37,2013-07-28 09:13:00,
2013-07-28 11:18:00,89.6,63.5,28.79,South,175,2.3,2.3,42,0.00,OVC,FEW,0.00,0.0,WeatherDisplay:10.37,2013-07-28 09:18:00,
2013-07-28 11:23:00,89.4,61.9,28.79,NNE,20,4.6,4.6,40,0.00,OVC,FEW,0.00,0.0,WeatherDisplay:10.37,2013-07-28 09:23:00,
2013-07-28 11:28:00,89.1,60.9,28.79,SSW,200,6.9,7.0,39,0.00,OVC,FEW,0.00,0.0,WeatherDisplay:10.37,2013-07-28 09:28:00,
2013-07-28 11:33:00,89.6,60.6,28.76,NE,45,5.8,6.2,38,0.00,OVC,FEW,0.00,0.0,WeatherDisplay:10.37,2013-07-28 09:33:00,
2013-07-28 11:38:00,89.6,61.4,28.76,ENE,70,6.9,7.0,39,0.00,OVC,FEW,0.00,0.0,WeatherDisplay:10.37,2013-07-28 09:38:00,
2013-07-28 11:43:00,89.6,61.4,28.76,ENE,70,6.9,7.0,39,0.00,OVC,FEW,0.00,0.0,WeatherDisplay:10.37,2013-07-28 09:43:00,
2013-07-28 11:48:00,89.8,61.5,28.76,NNE,30,5.8,5.8,39,0.00,OVC,FEW,0.00,0.0,WeatherDisplay:10.37,2013-07-28 09:48:00,
2013-07-28 11:53:00,90.3,62.7,28.76,SW,220,8.1,8.1,40,0.00,OVC,FEW,0.00,0.0,WeatherDisplay:10.37,2013-07-28 09:53:00,
2013-07-28 11:58:00,90.1,62.6,28.76,NE,55,6.9,6.9,40,0.00,OVC,FEW,0.00,0.0,WeatherDisplay:10.37,2013-07-28 09:58:00,
2013-07-28 12:03:00,90.9,62.5,28.79,ESE,115,6.9,6.9,39,0.00,OVC,FEW,0.00,0.0,WeatherDisplay:10.37,2013-07-28 10:03:00,
2013-07-28 12:08:00,90.5,61.4,28.79,ESE,115,5.8,5.8,38,0.00,OVC,FEW,0.00,0.0,WeatherDisplay:10.37,2013-07-28 10:08:00,
2013-07-28 12:13:00,91.0,61.1,28.79,SW,230,5.8,5.8,37,0.00,OVC,FEW,0.00,0.0,WeatherDisplay:10.37,2013-07-28 10:13:00,
2013-07-28 12:18:00,91.0,61.1,28.79,SW,230,5.8,5.8,37,0.00,OVC,FEW,0.00,0.0,WeatherDisplay:10.37,2013-07-28 10:18:00,
2013-07-28 12:23:00,91.9,61.9,28.79,SSE,160,9.2,9.2,37,0.00,OVC,FEW,0.00,0.0,WeatherDisplay:10.37,2013-07-28 10:23:00,
2013-07-28 12:28:00,90.7,60.1,28.79,SW,220,6.9,6.9,36,0.00,OVC,FEW,0.00,0.0,WeatherDisplay:10.37,2013-07-28 10:28:00,
2013-07-28 12:33:00,91.4,61.5,28.79,NNW,345,3.5,3.8,37,0.00,OVC,FEW,0.00,0.0,WeatherDisplay:10.37,2013-07-28 10:33:00,
2013-07-28 12:38:00,91.4,62.2,28.79,East,80,9.2,9.2,38,0.00,OVC,FEW,0.00,0.0,WeatherDisplay:10.37,2013-07-28 10:38:00,
2013-07-28 12:43:00,91.4,62.2,28.79,East,80,9.2,9.2,38,0.00,OVC,FEW,0.00,0.0,WeatherDisplay:10.37,2013-07-28 10:43:00,
2013-07-28 12:48:00,91.4,62.2,28.79,East,80,9.2,9.2,38,0.00,OVC,FEW,0.00,0.0,WeatherDisplay:10.37,2013-07-28 10:48:00,
2013-07-28 12:53:00,91.8,61.8,28.76,ENE,75,4.6,4.6,37,0.00,OVC,FEW,0.00,0.0,WeatherDisplay:10.37,2013-07-28 10:53:00,
2013-07-28 12:58:00,92.3,61.5,28.76,ESE,110,2.3,2.4,36,0.00,OVC,FEW,0.00,0.0,WeatherDisplay:10.37,2013-07-28 10:58:00,
2013-07-28 13:03:00,93.2,61.5,28.76,SW,230,2.3,2.6,35,0.00,OVC,FEW,0.00,0.0,WeatherDisplay:10.37,2013-07-28 11:03:00,
2013-07-28 13:08:00,93.2,61.5,28.76,SW,230,2.3,2.6,35,0.00,OVC,FEW,0.00,0.0,WeatherDisplay:10.37,2013-07-28 11:08:00,
2013-07-28 13:13:00,92.7,61.8,28.76,SSE,155,5.8,5.8,36,0.00,OVC,FEW,0.00,0.0,WeatherDisplay:10.37,2013-07-28 11:13:00,
2013-07-28 13:18:00,92.7,61.8,28.76,SSE,155,5.8,5.8,36,0.00,OVC,FEW,0.00,0.0,WeatherDisplay:10.37,2013-07-28 11:18:00,
2013-07-28 13:23:00,93.2,61.5,28.76,NNE,25,4.6,4.7,35,0.00,OVC,FEW,0.00,0.0,WeatherDisplay:10.37,2013-07-28 11:23:00,
2013-07-28 13:28:00,94.3,61.6,28.76,NW,315,2.3,2.3,34,0.00,OVC,FEW,0.00,0.0,WeatherDisplay:10.37,2013-07-28 11:28:00,
2013-07-28 13:33:00,93.2,61.5,28.76,SE,140,6.9,7.3,35,0.00,OVC,FEW,0.00,0.0,WeatherDisplay:10.37,2013-07-28 11:33:00,
2013-07-28 13:38:00,93.4,60.0,28.76,SSE,155,5.8,6.0,33,0.00,OVC,FEW,0.00,0.0,WeatherDisplay:10.37,2013-07-28 11:38:00,
2013-07-28 13:43:00,93.4,60.0,28.76,SSE,155,5.8,6.0,33,0.00,OVC,FEW,0.00,0.0,WeatherDisplay:10.37,2013-07-28 11:43:00,
2013-07-28 13:48:00,93.4,62.4,28.76,ESE,115,2.3,2.3,36,0.00,OVC,FEW,0.00,0.0,WeatherDisplay:10.37,2013-07-28 11:48:00,
2013-07-28 13:53:00,93.2,61.5,28.76,ESE,120,5.8,6.0,35,0.00,OVC,FEW,0.00,0.0,WeatherDisplay:10.37,2013-07-28 11:53:00,
2013-07-28 13:58:00,93.6,61.0,28.76,SE,140,8.1,8.1,34,0.00,OVC,FEW,0.00,0.0,WeatherDisplay:10.37,2013-07-28 11:58:00,
2013-07-28 14:03:00,94.3,62.4,28.76,South,185,5.8,5.8,35,0.00,OVC,FEW,0.00,0.0,WeatherDisplay:10.37,2013-07-28 12:03:00,
2013-07-28 14:08:00,94.5,60.9,28.76,SSE,155,6.9,6.9,33,0.00,OVC,FEW,0.00,0.0,WeatherDisplay:10.37,2013-07-28 12:08:00,
2013-07-28 14:13:00,94.3,59.9,28.76,SSE,160,8.1,8.1,32,0.00,OVC,FEW,0.00,0.0,WeatherDisplay:10.37,2013-07-28 12:13:00,
2013-07-28 14:18:00,94.3,59.9,28.76,SSE,160,8.1,8.1,32,0.00,OVC,FEW,0.00,0.0,WeatherDisplay:10.37,2013-07-28 12:18:00,
2013-07-28 14:23:00,94.3,59.9,28.76,NW,315,3.5,3.8,32,0.00,OVC,FEW,0.00,0.0,WeatherDisplay:10.37,2013-07-28 12:23:00,
2013-07-28 14:28:00,95.0,59.6,28.76,North,350,3.5,3.5,31,0.00,OVC,FEW,0.00,0.0,WeatherDisplay:10.37,2013-07-28 12:28:00,
2013-07-28 14:33:00,95.0,60.5,28.73,NNE,20,3.5,4.0,32,0.00,OVC,FEW,0.00,0.0,WeatherDisplay:10.37,2013-07-28 12:33:00,
2013-07-28 14:38:00,94.6,58.4,28.73,NE,35,2.3,2.4,30,0.00,OVC,FEW,0.00,0.0,WeatherDisplay:10.37,2013-07-28 12:38:00,
2013-07-28 14:43:00,94.3,58.1,28.73,SE,130,5.8,5.8,30,0.00,OVC,FEW,0.00,0.0,WeatherDisplay:10.37,2013-07-28 12:43:00,
2013-07-28 14:48:00,94.3,58.1,28.73,SE,130,5.8,5.8,30,0.00,OVC,FEW,0.00,0.0,WeatherDisplay:10.37,2013-07-28 12:48:00,
2013-07-28 14:53:00,95.2,59.8,28.73,SSW,205,8.1,8.5,31,0.00,OVC,FEW,0.00,0.0,WeatherDisplay:10.37,2013-07-28 12:53:00,
2013-07-28 14:58:00,94.8,60.4,28.73,SSE,165,9.2,9.6,32,0.00,OVC,FEW,0.00,0.0,WeatherDisplay:10.37,2013-07-28 12:58:00,
2013-07-28 15:03:00,95.4,60.8,28.76,South,175,5.8,5.8,32,0.00,OVC,FEW,0.00,0.0,WeatherDisplay:10.37,2013-07-28 13:03:00,
2013-07-28 15:08:00,95.0,59.6,28.76,South,175,9.2,9.8,31,0.00,OVC,FEW,0.00,0.0,WeatherDisplay:10.37,2013-07-28 13:08:00,
2013-07-28 15:13:00,95.4,59.9,28.73,SW,220,4.6,5.1,31,0.00,OVC,FEW,0.00,0.0,WeatherDisplay:10.37,2013-07-28 13:13:00,
2013-07-28 15:18:00,95.4,59.9,28.73,SW,220,4.6,5.1,31,0.00,OVC,FEW,0.00,0.0,WeatherDisplay:10.37,2013-07-28 13:18:00,
2013-07-28 15:23:00,95.5,59.2,28.73,SSE,155,6.9,7.3,30,0.00,OVC,FEW,0.00,0.0,WeatherDisplay:10.37,2013-07-28 13:23:00,
2013-07-28 15:28:00,94.8,57.6,28.73,SE,145,9.2,9.2,29,0.00,OVC,FEW,0.00,0.0,WeatherDisplay:10.37,2013-07-28 13:28:00,
2013-07-28 15:33:00,95.7,59.3,28.73,South,185,4.6,4.6,30,0.00,OVC,FEW,0.00,0.0,WeatherDisplay:10.37,2013-07-28 13:33:00,
2013-07-28 15:38:00,95.0,59.6,28.73,South,175,5.8,5.8,31,0.00,OVC,FEW,0.00,0.0,WeatherDisplay:10.37,2013-07-28 13:38:00,
2013-07-28 15:43:00,94.6,59.3,28.73,West,265,3.8,3.8,31,0.00,OVC,FEW,0.00,0.0,WeatherDisplay:10.37,2013-07-28 13:43:00,
2013-07-28 15:48:00,94.6,59.3,28.73,West,265,3.5,3.8,31,0.00,OVC,FEW,0.00,0.0,WeatherDisplay:10.37,2013-07-28 13:48:00,
2013-07-28 15:53:00,94.8,60.4,28.73,SW,225,8.1,8.3,32,0.00,OVC,FEW,0.00,0.0,WeatherDisplay:10.37,2013-07-28 13:53:00,
2013-07-28 15:58:00,95.0,60.5,28.73,SSE,150,6.9,6.9,32,0.00,OVC,FEW,0.00,0.0,WeatherDisplay:10.37,2013-07-28 13:58:00,
2013-07-28 16:03:00,95.0,60.5,28.73,South,185,8.1,8.5,32,0.00,OVC,FEW,0.00,0.0,WeatherDisplay:10.37,2013-07-28 14:03:00,
2013-07-28 16:08:00,95.4,59.0,28.73,SSE,165,9.2,9.8,30,0.00,OVC,FEW,0.00,0.0,WeatherDisplay:10.37,2013-07-28 14:08:00,
2013-07-28 16:13:00,95.7,60.2,28.73,WSW,245,8.1,8.1,31,0.00,OVC,FEW,0.00,0.0,WeatherDisplay:10.37,2013-07-28 14:13:00,
2013-07-28 16:18:00,95.7,60.2,28.73,WSW,245,8.1,8.1,31,0.00,OVC,FEW,0.00,0.0,WeatherDisplay:10.37,2013-07-28 14:18:00,
2013-07-28 16:23:00,96.3,60.7,28.73,SSW,210,6.9,6.9,31,0.00,OVC,FEW,0.00,0.0,WeatherDisplay:10.37,2013-07-28 14:23:00,
2013-07-28 16:28:00,96.1,59.6,28.73,South,185,6.9,6.9,30,0.00,OVC,FEW,0.00,0.0,WeatherDisplay:10.37,2013-07-28 14:28:00,
2013-07-28 16:33:00,95.9,59.5,28.73,SE,140,6.9,7.3,30,0.00,OVC,FEW,0.00,0.0,WeatherDisplay:10.37,2013-07-28 14:33:00,
2013-07-28 16:38:00,95.5,60.1,28.73,SSE,150,6.9,7.1,31,0.00,OVC,FEW,0.00,0.0,WeatherDisplay:10.37,2013-07-28 14:38:00,
2013-07-28 16:43:00,96.1,60.6,28.73,SSW,195,8.1,8.1,31,0.00,OVC,FEW,0.00,0.0,WeatherDisplay:10.37,2013-07-28 14:43:00,
2013-07-28 16:48:00,96.1,60.6,28.73,SSW,195,8.1,8.1,31,0.00,OVC,FEW,0.00,0.0,WeatherDisplay:10.37,2013-07-28 14:48:00,
2013-07-28 16:53:00,96.1,60.6,28.73,SE,145,8.1,8.1,31,0.00,OVC,FEW,0.00,0.0,WeatherDisplay:10.37,2013-07-28 14:53:00,
2013-07-28 16:58:00,95.7,60.2,28.73,SSW,205,9.2,9.2,31,0.00,OVC,FEW,0.00,0.0,WeatherDisplay:10.37,2013-07-28 14:58:00,
2013-07-28 17:03:00,96.3,59.8,28.73,SSW,200,8.1,8.1,30,0.00,OVC,FEW,0.00,0.0,WeatherDisplay:10.37,2013-07-28 15:03:00,
2013-07-28 17:08:00,95.7,60.2,28.73,SE,140,6.9,7.3,31,0.00,OVC,FEW,0.00,0.0,WeatherDisplay:10.37,2013-07-28 15:08:00,
2013-07-28 17:13:00,95.7,61.1,28.70,SE,135,9.2,9.6,32,0.00,OVC,FEW,0.00,0.0,WeatherDisplay:10.37,2013-07-28 15:13:00,
2013-07-28 17:18:00,95.7,61.1,28.70,SE,135,9.2,9.6,32,0.00,OVC,FEW,0.00,0.0,WeatherDisplay:10.37,2013-07-28 15:18:00,
2013-07-28 17:23:00,96.1,60.6,28.70,South,180,5.8,6.0,31,0.00,OVC,FEW,0.00,0.0,WeatherDisplay:10.37,2013-07-28 15:23:00,
2013-07-28 17:28:00,96.1,60.6,28.70,South,180,5.8,6.0,31,0.00,OVC,FEW,0.00,0.0,WeatherDisplay:10.37,2013-07-28 15:28:00,
2013-07-28 17:33:00,96.6,61.0,28.70,WSW,240,4.6,4.6,31,0.00,OVC,FEW,0.00,0.0,WeatherDisplay:10.37,2013-07-28 15:33:00,
2013-07-28 17:38:00,96.3,60.7,28.70,ESE,120,6.9,6.9,31,0.00,OVC,FEW,0.00,0.0,WeatherDisplay:10.37,2013-07-28 15:38:00,
2013-07-28 17:43:00,97.0,61.3,28.70,SW,220,2.3,2.3,31,0.00,OVC,FEW,0.00,0.0,WeatherDisplay:10.37,2013-07-28 15:43:00,
2013-07-28 17:48:00,97.0,61.3,28.70,SW,220,2.3,2.3,31,0.00,OVC,FEW,0.00,0.0,WeatherDisplay:10.37,2013-07-28 15:48:00,
2013-07-28 17:53:00,97.0,61.3,28.70,SW,220,2.3,2.3,31,0.00,OVC,FEW,0.00,0.0,WeatherDisplay:10.37,2013-07-28 15:53:00,
2013-07-28 17:59:00,96.4,60.9,28.70,SSW,195,2.3,2.4,31,0.00,OVC,FEW,0.00,0.0,WeatherDisplay:10.37,2013-07-28 15:59:00,
2013-07-28 18:04:00,96.4,60.9,28.70,SSE,155,4.6,4.9,31,0.00,OVC,FEW,0.00,0.0,WeatherDisplay:10.37,2013-07-28 16:04:00,
2013-07-28 18:09:00,96.1,61.5,28.70,SSE,150,9.2,9.2,32,0.00,OVC,FEW,0.00,0.0,WeatherDisplay:10.37,2013-07-28 16:09:00,
2013-07-28 18:14:00,96.1,62.3,28.70,SW,215,6.9,6.9,33,0.00,OVC,FEW,0.00,0.0,WeatherDisplay:10.37,2013-07-28 16:14:00,
2013-07-28 18:19:00,96.1,62.3,28.70,SW,215,6.9,6.9,33,0.00,OVC,FEW,0.00,0.0,WeatherDisplay:10.37,2013-07-28 16:19:00,
2013-07-28 18:24:00,95.7,61.1,28.70,SE,140,4.6,5.1,32,0.00,OVC,FEW,0.00,0.0,WeatherDisplay:10.37,2013-07-28 16:24:00,
2013-07-28 18:29:00,95.9,62.2,28.70,SW,215,6.9,7.0,33,0.00,OVC,FEW,0.00,0.0,WeatherDisplay:10.37,2013-07-28 16:29:00,
2013-07-28 18:34:00,96.1,61.5,28.67,South,185,4.6,4.6,32,0.00,OVC,FEW,0.00,0.0,WeatherDisplay:10.37,2013-07-28 16:34:00,
2013-07-28 18:39:00,95.9,63.0,28.67,South,180,4.6,4.6,34,0.00,OVC,FEW,0.00,0.0,WeatherDisplay:10.37,2013-07-28 16:39:00,
2013-07-28 18:44:00,95.9,62.2,28.70,SSE,150,4.6,4.7,33,0.00,OVC,FEW,0.00,0.0,WeatherDisplay:10.37,2013-07-28 16:44:00,
2013-07-28 18:49:00,95.9,62.2,28.70,SSE,150,4.6,4.7,33,0.00,OVC,FEW,0.00,0.0,WeatherDisplay:10.37,2013-07-28 16:49:00,
2013-07-28 18:54:00,96.1,63.2,28.70,SW,215,4.6,4.9,34,0.00,OVC,FEW,0.00,0.0,WeatherDisplay:10.37,2013-07-28 16:54:00,
2013-07-28 18:59:00,95.4,61.7,28.70,SSE,165,5.8,6.2,33,0.00,OVC,FEW,0.00,0.0,WeatherDisplay:10.37,2013-07-28 16:59:00,
2013-07-28 19:04:00,95.2,63.2,28.67,SSE,150,3.5,3.5,35,0.00,OVC,FEW,0.00,0.0,WeatherDisplay:10.37,2013-07-28 17:04:00,
2013-07-28 19:09:00,95.2,63.2,28.67,SSE,165,3.5,3.5,35,0.00,OVC,FEW,0.00,0.0,WeatherDisplay:10.37,2013-07-28 17:09:00,
2013-07-28 19:14:00,94.5,63.4,28.67,SSE,160,3.5,3.5,36,0.00,OVC,FEW,0.00,0.0,WeatherDisplay:10.37,2013-07-28 17:14:00,
2013-07-28 19:19:00,94.5,63.4,28.67,SSE,160,3.5,3.5,36,0.00,OVC,FEW,0.00,0.0,WeatherDisplay:10.37,2013-07-28 17:19:00,
2013-07-28 19:24:00,94.3,64.0,28.67,SSE,150,4.6,4.6,37,0.00,OVC,FEW,0.00,0.0,WeatherDisplay:10.37,2013-07-28 17:24:00,
2013-07-28 19:29:00,94.3,64.8,28.67,SSE,160,0.0,0.0,38,0.00,OVC,FEW,0.00,0.0,WeatherDisplay:10.37,2013-07-28 17:29:00,
2013-07-28 19:34:00,93.4,66.2,28.70,SSE,155,0.0,0.0,41,0.00,OVC,FEW,0.00,0.0,WeatherDisplay:10.37,2013-07-28 17:34:00,
2013-07-28 19:39:00,92.8,67.1,28.70,SSE,155,0.0,0.0,43,0.00,OVC,FEW,0.00,0.0,WeatherDisplay:10.37,2013-07-28 17:39:00,
2013-07-28 19:44:00,93.2,66.0,28.70,SSE,165,0.0,0.0,41,0.00,OVC,FEW,0.00,0.0,WeatherDisplay:10.37,2013-07-28 17:44:00,
2013-07-28 19:49:00,93.2,66.0,28.70,SSE,165,0.0,0.0,41,0.00,OVC,FEW,0.00,0.0,WeatherDisplay:10.37,2013-07-28 17:49:00,
2013-07-28 19:54:00,93.0,67.9,28.70,SSE,165,0.0,0.0,44,0.00,OVC,FEW,0.00,0.0,WeatherDisplay:10.37,2013-07-28 17:54:00,
2013-07-28 19:59:00,93.0,69.2,28.70,SSE,165,0.0,0.0,46,0.00,OVC,FEW,0.00,0.0,WeatherDisplay:10.37,2013-07-28 17:59:00,
2013-07-28 20:04:00,92.5,68.7,28.70,SSE,165,0.0,0.0,46,0.00,OVC,FEW,0.00,0.0,WeatherDisplay:10.37,2013-07-28 18:04:00,
2013-07-28 20:09:00,89.2,67.6,28.70,SSE,165,0.0,0.0,49,0.00,OVC,FEW,0.00,0.0,WeatherDisplay:10.37,2013-07-28 18:09:00,
2013-07-28 20:14:00,87.1,67.3,28.70,South,170,0.0,0.0,52,0.00,OVC,FEW,0.00,0.0,WeatherDisplay:10.37,2013-07-28 18:14:00,
2013-07-28 20:19:00,87.1,67.3,28.70,South,170,0.0,0.0,52,0.00,OVC,FEW,0.00,0.0,WeatherDisplay:10.37,2013-07-28 18:19:00,
2013-07-28 20:24:00,85.6,67.6,28.70,SSE,150,0.0,0.0,55,0.00,OVC,FEW,0.00,0.0,WeatherDisplay:10.37,2013-07-28 18:24:00,
2013-07-28 20:29:00,84.2,67.8,28.70,SSE,165,0.0,0.0,58,0.00,OVC,FEW,0.00,0.0,WeatherDisplay:10.37,2013-07-28 18:29:00,
2013-07-28 20:34:00,82.8,67.5,28.70,SSE,150,0.0,0.0,60,0.00,OVC,FEW,0.00,0.0,WeatherDisplay:10.37,2013-07-28 18:34:00,
2013-07-28 20:39:00,81.7,66.9,28.70,SSE,165,0.0,0.0,61,0.00,OVC,FEW,0.00,0.0,WeatherDisplay:10.37,2013-07-28 18:39:00,
2013-07-28 20:44:00,81.7,67.4,28.70,South,180,0.0,0.0,62,0.00,OVC,FEW,0.00,0.0,WeatherDisplay:10.37,2013-07-28 18:44:00,
2013-07-28 20:49:00,81.7,67.4,28.70,South,180,0.0,0.0,62,0.00,OVC,FEW,0.00,0.0,WeatherDisplay:10.37,2013-07-28 18:49:00,
2013-07-28 20:54:00,81.9,66.6,28.70,WSW,245,1.1,1.1,60,0.00,OVC,FEW,0.00,0.0,WeatherDisplay:10.37,2013-07-28 18:54:00,
2013-07-28 20:59:00,82.4,66.6,28.70,SSE,155,0.0,0.0,59,0.00,OVC,FEW,0.00,0.0,WeatherDisplay:10.37,2013-07-28 18:59:00,
2013-07-28 21:04:00,81.0,66.2,28.67,SSW,210,0.0,0.0,61,0.00,CLR,FEW,0.00,0.0,WeatherDisplay:10.37,2013-07-28 19:04:00,
2013-07-28 21:09:00,80.6,66.4,28.67,South,175,0.0,0.0,62,0.00,CLR,FEW,0.00,0.0,WeatherDisplay:10.37,2013-07-28 19:09:00,
2013-07-28 21:14:00,80.6,66.4,28.67,South,175,0.0,0.0,62,0.00,CLR,FEW,0.00,0.0,WeatherDisplay:10.37,2013-07-28 19:14:00,
2013-07-28 21:19:00,80.6,66.4,28.67,South,175,0.0,0.0,62,0.00,CLR,FEW,0.00,0.0,WeatherDisplay:10.37,2013-07-28 19:19:00,
2013-07-28 21:24:00,79.0,66.2,28.70,SSW,210,0.0,0.0,65,0.00,CLR,FEW,0.00,0.0,WeatherDisplay:10.37,2013-07-28 19:24:00,
2013-07-28 21:29:00,78.8,66.0,28.70,SSW,200,2.3,2.3,65,0.00,CLR,FEW,0.00,0.0,WeatherDisplay:10.37,2013-07-28 19:29:00,
2013-07-28 21:34:00,78.4,65.7,28.67,South,185,1.1,1.1,65,0.00,CLR,FEW,0.00,0.0,WeatherDisplay:10.37,2013-07-28 19:34:00,
2013-07-28 21:39:00,78.6,65.9,28.67,SSE,160,0.0,0.0,65,0.00,CLR,FEW,0.00,0.0,WeatherDisplay:10.37,2013-07-28 19:39:00,
2013-07-28 21:44:00,77.7,65.5,28.67,SSE,155,0.0,0.0,66,0.00,CLR,FEW,0.00,0.0,WeatherDisplay:10.37,2013-07-28 19:44:00,
2013-07-28 21:49:00,77.7,65.5,28.67,SSE,155,0.0,0.0,66,0.00,CLR,FEW,0.00,0.0,WeatherDisplay:10.37,2013-07-28 19:49:00,
2013-07-28 21:54:00,77.7,65.5,28.67,South,185,2.3,2.3,66,0.00,CLR,FEW,0.00,0.0,WeatherDisplay:10.37,2013-07-28 19:54:00,
2013-07-28 21:59:00,78.1,65.4,28.67,SSW,192,2.0,3.0,65,0.00,CLR,FEW,0.00,0.0,WeatherDisplay:10.37,2013-07-28 19:59:00,
2013-07-28 22:04:00,78.1,65.4,28.70,SW,215,2.3,2.3,65,0.00,CLR,FEW,0.00,0.0,WeatherDisplay:10.37,2013-07-28 20:04:00,
2013-07-28 22:09:00,79.2,65.0,28.70,WSW,255,2.3,2.3,62,0.00,CLR,FEW,0.00,0.0,WeatherDisplay:10.37,2013-07-28 20:09:00,
2013-07-28 22:14:00,78.8,65.1,28.70,West,280,0.0,0.0,63,0.00,CLR,FEW,0.00,0.0,WeatherDisplay:10.37,2013-07-28 20:14:00,
2013-07-28 22:19:00,78.8,65.1,28.70,West,280,0.0,0.0,63,0.00,CLR,FEW,0.00,0.0,WeatherDisplay:10.37,2013-07-28 20:19:00,
2013-07-28 22:24:00,77.7,65.0,28.70,SW,235,1.1,1.1,65,0.00,CLR,FEW,0.00,0.0,WeatherDisplay:10.37,2013-07-28 20:24:00,
2013-07-28 22:29:00,77.9,65.2,28.70,SSW,200,0.0,0.0,65,0.00,CLR,FEW,0.00,0.0,WeatherDisplay:10.37,2013-07-28 20:29:00,
2013-07-28 22:34:00,77.0,65.2,28.70,SSW,200,0.0,0.0,67,0.00,CLR,FEW,0.00,0.0,WeatherDisplay:10.37,2013-07-28 20:34:00,
2013-07-28 22:39:00,77.4,65.1,28.70,South,190,2.3,2.3,66,0.00,CLR,FEW,0.00,0.0,WeatherDisplay:10.37,2013-07-28 20:39:00,
2013-07-28 22:44:00,77.7,65.0,28.70,SSW,210,0.0,0.0,65,0.00,CLR,FEW,0.00,0.0,WeatherDisplay:10.37,2013-07-28 20:44:00,
2013-07-28 22:49:00,77.7,65.0,28.70,SSW,210,0.0,0.0,65,0.00,CLR,FEW,0.00,0.0,WeatherDisplay:10.37,2013-07-28 20:49:00,
2013-07-28 22:54:00,77.7,65.5,28.70,SSW,210,0.0,0.0,66,0.00,CLR,FEW,0.00,0.0,WeatherDisplay:10.37,2013-07-28 20:54:00,
2013-07-28 22:59:00,77.5,65.3,28.70,SSW,198,0.0,2.0,66,0.00,CLR,FEW,0.00,0.0,WeatherDisplay:10.37,2013-07-28 20:59:00,
2013-07-28 23:04:00,77.4,65.5,28.70,South,190,0.0,0.0,67,0.00,CLR,FEW,0.00,0.0,WeatherDisplay:10.37,2013-07-28 21:04:00,
2013-07-28 23:09:00,77.2,65.4,28.70,SSW,205,1.1,1.3,67,0.00,CLR,FEW,0.00,0.0,WeatherDisplay:10.37,2013-07-28 21:09:00,
2013-07-28 23:14:00,77.2,65.4,28.70,South,190,0.0,0.0,67,0.00,CLR,FEW,0.00,0.0,WeatherDisplay:10.37,2013-07-28 21:14:00,
2013-07-28 23:19:00,76.6,65.7,28.70,SSE,165,0.0,0.0,69,0.00,CLR,FEW,0.00,0.0,WeatherDisplay:10.37,2013-07-28 21:19:00,
2013-07-28 23:24:00,76.6,65.7,28.70,SSE,165,0.0,0.0,69,0.00,CLR,FEW,0.00,0.0,WeatherDisplay:10.37,2013-07-28 21:24:00,
2013-07-28 23:29:00,76.3,65.8,28.70,SSW,210,0.0,0.0,70,0.00,CLR,FEW,0.00,0.0,WeatherDisplay:10.37,2013-07-28 21:29:00,
2013-07-28 23:34:00,76.1,65.6,28.70,South,180,2.3,2.3,70,0.00,CLR,FEW,0.00,0.0,WeatherDisplay:10.37,2013-07-28 21:34:00,
2013-07-28 23:39:00,76.1,65.6,28.70,South,175,0.0,0.0,70,0.00,CLR,FEW,0.00,0.0,WeatherDisplay:10.37,2013-07-28 21:39:00,
2013-07-28 23:44:00,75.9,65.4,28.70,SSW,200,0.0,0.0,70,0.00,CLR,FEW,0.00,0.0,WeatherDisplay:10.37,2013-07-28 21:44:00,
2013-07-28 23:49:00,75.9,65.4,28.70,SSW,200,0.0,0.0,70,0.00,CLR,FEW,0.00,0.0,WeatherDisplay:10.37,2013-07-28 21:49:00,
2013-07-28 23:54:00,76.3,65.4,28.70,SW,220,1.1,1.3,69,0.00,CLR,FEW,0.00,0.0,WeatherDisplay:10.37,2013-07-28 21:54:00,
2013-07-28 23:59:00,76.6,65.7,28.70,SSW,209,1.0,2.0,69,0.00,CLR,FEW,0.00,0.0,WeatherDisplay:10.37,2013-07-28 21:59:00,